sensor_id;sensor_type;location;lat;lon;timestamp;pressure;altitude;pressure_sealevel;temperature;humidity
33185;BME280;19550;42.872;25.494;2023-10-31T00:00:17;96560.94;;;9.20;100.00
33185;BME280;19550;42.872;25.494;2023-10-31T00:02:44;96560.31;;;9.09;100.00
33185;BME280;19550;42.872;25.494;2023-10-31T00:05:12;96551.00;;;9.05;100.00
33185;BME280;19550;42.872;25.494;2023-10-31T00:07:39;96561.63;;;9.12;100.00
33185;BME280;19550;42.872;25.494;2023-10-31T00:10:06;96556.72;;;9.23;100.00
33185;BME280;19550;42.872;25.494;2023-10-31T00:12:34;96553.97;;;9.09;100.00
33185;BME280;19550;42.872;25.494;2023-10-31T00:15:01;96543.63;;;9.14;100.00
33185;BME280;19550;42.872;25.494;2023-10-31T00:17:28;96554.47;;;9.11;100.00
33185;BME280;19550;42.872;25.494;2023-10-31T00:19:54;96554.97;;;9.13;100.00
33185;BME280;19550;42.872;25.494;2023-10-31T00:22:23;96547.63;;;9.08;100.00
33185;BME280;19550;42.872;25.494;2023-10-31T00:24:49;96538.38;;;8.99;100.00
33185;BME280;19550;42.872;25.494;2023-10-31T00:27:16;96536.03;;;9.06;100.00
33185;BME280;19550;42.872;25.494;2023-10-31T00:29:43;96544.84;;;9.08;100.00
33185;BME280;19550;42.872;25.494;2023-10-31T00:32:10;96533.28;;;9.06;100.00
33185;BME280;19550;42.872;25.494;2023-10-31T00:34:37;96532.44;;;9.06;100.00
33185;BME280;19550;42.872;25.494;2023-10-31T00:37:04;96524.97;;;9.06;100.00
33185;BME280;19550;42.872;25.494;2023-10-31T00:39:32;96529.50;;;9.02;100.00
33185;BME280;19550;42.872;25.494;2023-10-31T00:41:59;96525.50;;;9.08;100.00
33185;BME280;19550;42.872;25.494;2023-10-31T00:44:26;96515.16;;;9.00;100.00
33185;BME280;19550;42.872;25.494;2023-10-31T00:46:54;96496.44;;;8.84;100.00
33185;BME280;19550;42.872;25.494;2023-10-31T00:49:21;96513.91;;;8.93;100.00
33185;BME280;19550;42.872;25.494;2023-10-31T00:51:48;96508.09;;;8.94;100.00
33185;BME280;19550;42.872;25.494;2023-10-31T00:54:14;96496.84;;;8.91;100.00
33185;BME280;19550;42.872;25.494;2023-10-31T00:56:43;96496.22;;;8.80;100.00
33185;BME280;19550;42.872;25.494;2023-10-31T00:59:09;96487.22;;;8.74;100.00
33185;BME280;19550;42.872;25.494;2023-10-31T01:01:36;96484.34;;;8.66;100.00
33185;BME280;19550;42.872;25.494;2023-10-31T01:04:04;96486.50;;;8.69;100.00
33185;BME280;19550;42.872;25.494;2023-10-31T01:06:31;96484.97;;;8.63;100.00
33185;BME280;19550;42.872;25.494;2023-10-31T01:08:57;96484.03;;;8.67;100.00
33185;BME280;19550;42.872;25.494;2023-10-31T01:11:24;96482.22;;;8.76;100.00
33185;BME280;19550;42.872;25.494;2023-10-31T01:13:53;96448.63;;;8.42;100.00
33185;BME280;19550;42.872;25.494;2023-10-31T01:16:20;96472.88;;;8.59;100.00
33185;BME280;19550;42.872;25.494;2023-10-31T01:18:47;96485.53;;;8.46;100.00
33185;BME280;19550;42.872;25.494;2023-10-31T01:21:14;96474.59;;;8.41;100.00
33185;BME280;19550;42.872;25.494;2023-10-31T01:23:43;96481.88;;;8.51;100.00
33185;BME280;19550;42.872;25.494;2023-10-31T01:26:10;96473.19;;;8.44;100.00
33185;BME280;19550;42.872;25.494;2023-10-31T01:28:37;96477.66;;;8.40;100.00
33185;BME280;19550;42.872;25.494;2023-10-31T01:31:05;96472.84;;;8.31;100.00
33185;BME280;19550;42.872;25.494;2023-10-31T01:33:32;96464.47;;;8.36;100.00
33185;BME280;19550;42.872;25.494;2023-10-31T01:35:59;96442.34;;;8.23;100.00
33185;BME280;19550;42.872;25.494;2023-10-31T01:38:25;96467.97;;;8.42;100.00
33185;BME280;19550;42.872;25.494;2023-10-31T01:40:52;96467.13;;;8.42;100.00
33185;BME280;19550;42.872;25.494;2023-10-31T01:43:29;96466.91;;;8.38;100.00
33185;BME280;19550;42.872;25.494;2023-10-31T01:45:56;96459.78;;;8.37;100.00
33185;BME280;19550;42.872;25.494;2023-10-31T01:48:25;96455.25;;;8.41;100.00
33185;BME280;19550;42.872;25.494;2023-10-31T01:50:54;96459.44;;;8.38;100.00
33185;BME280;19550;42.872;25.494;2023-10-31T01:53:21;96449.53;;;8.38;100.00
33185;BME280;19550;42.872;25.494;2023-10-31T01:55:49;96452.59;;;8.36;100.00
33185;BME280;19550;42.872;25.494;2023-10-31T01:58:18;96459.66;;;8.42;100.00
33185;BME280;19550;42.872;25.494;2023-10-31T02:00:47;96453.72;;;8.35;100.00
33185;BME280;19550;42.872;25.494;2023-10-31T02:03:14;96437.94;;;8.22;100.00
33185;BME280;19550;42.872;25.494;2023-10-31T02:05:43;96442.75;;;8.30;100.00
33185;BME280;19550;42.872;25.494;2023-10-31T02:08:10;96441.34;;;8.32;100.00
33185;BME280;19550;42.872;25.494;2023-10-31T02:10:36;96446.84;;;8.32;100.00
33185;BME280;19550;42.872;25.494;2023-10-31T02:13:10;96437.09;;;8.21;100.00
33185;BME280;19550;42.872;25.494;2023-10-31T02:15:37;96443.03;;;8.15;100.00
33185;BME280;19550;42.872;25.494;2023-10-31T02:18:04;96438.00;;;8.03;100.00
33185;BME280;19550;42.872;25.494;2023-10-31T02:20:31;96445.75;;;8.01;100.00
33185;BME280;19550;42.872;25.494;2023-10-31T02:22:59;96439.97;;;8.16;100.00
33185;BME280;19550;42.872;25.494;2023-10-31T02:25:26;96435.94;;;7.95;100.00
33185;BME280;19550;42.872;25.494;2023-10-31T02:27:52;96452.19;;;7.96;100.00
33185;BME280;19550;42.872;25.494;2023-10-31T02:30:19;96430.94;;;7.97;100.00
33185;BME280;19550;42.872;25.494;2023-10-31T02:32:46;96457.00;;;8.05;100.00
33185;BME280;19550;42.872;25.494;2023-10-31T02:35:15;96446.47;;;8.07;100.00
33185;BME280;19550;42.872;25.494;2023-10-31T02:37:42;96462.50;;;7.91;100.00
33185;BME280;19550;42.872;25.494;2023-10-31T02:40:11;96419.03;;;7.83;100.00
33185;BME280;19550;42.872;25.494;2023-10-31T02:42:38;96420.84;;;7.74;100.00
33185;BME280;19550;42.872;25.494;2023-10-31T02:45:06;96456.66;;;7.92;100.00
33185;BME280;19550;42.872;25.494;2023-10-31T02:47:33;96447.28;;;7.93;100.00
33185;BME280;19550;42.872;25.494;2023-10-31T02:50:00;96448.81;;;7.99;100.00
33185;BME280;19550;42.872;25.494;2023-10-31T02:52:27;96452.31;;;8.05;100.00
33185;BME280;19550;42.872;25.494;2023-10-31T02:54:53;96453.09;;;7.92;100.00
33185;BME280;19550;42.872;25.494;2023-10-31T02:57:22;96457.50;;;7.93;100.00
33185;BME280;19550;42.872;25.494;2023-10-31T02:59:48;96453.66;;;8.08;100.00
33185;BME280;19550;42.872;25.494;2023-10-31T03:02:15;96447.75;;;7.82;100.00
33185;BME280;19550;42.872;25.494;2023-10-31T03:04:42;96463.16;;;8.02;100.00
33185;BME280;19550;42.872;25.494;2023-10-31T03:07:09;96456.16;;;7.90;100.00
33185;BME280;19550;42.872;25.494;2023-10-31T03:09:36;96457.00;;;8.05;100.00
33185;BME280;19550;42.872;25.494;2023-10-31T03:12:03;96450.97;;;8.03;100.00
33185;BME280;19550;42.872;25.494;2023-10-31T03:14:31;96460.47;;;7.96;100.00
33185;BME280;19550;42.872;25.494;2023-10-31T03:16:58;96452.88;;;7.88;100.00
33185;BME280;19550;42.872;25.494;2023-10-31T03:19:24;96454.09;;;7.82;100.00
33185;BME280;19550;42.872;25.494;2023-10-31T03:21:51;96459.31;;;7.84;100.00
33185;BME280;19550;42.872;25.494;2023-10-31T03:24:18;96459.91;;;7.81;100.00
33185;BME280;19550;42.872;25.494;2023-10-31T03:26:45;96449.72;;;7.95;100.00
33185;BME280;19550;42.872;25.494;2023-10-31T03:29:11;96455.25;;;7.95;100.00
33185;BME280;19550;42.872;25.494;2023-10-31T03:31:40;96450.66;;;7.90;100.00
33185;BME280;19550;42.872;25.494;2023-10-31T03:34:06;96453.19;;;7.87;100.00
33185;BME280;19550;42.872;25.494;2023-10-31T03:36:33;96449.78;;;7.76;100.00
33185;BME280;19550;42.872;25.494;2023-10-31T03:39:00;96446.25;;;7.89;100.00
33185;BME280;19550;42.872;25.494;2023-10-31T03:41:27;96441.13;;;7.83;100.00
33185;BME280;19550;42.872;25.494;2023-10-31T03:43:53;96440.00;;;7.84;100.00
33185;BME280;19550;42.872;25.494;2023-10-31T03:46:20;96429.75;;;7.71;100.00
33185;BME280;19550;42.872;25.494;2023-10-31T03:48:48;96446.53;;;7.55;100.00
33185;BME280;19550;42.872;25.494;2023-10-31T03:51:16;96438.25;;;7.55;100.00
33185;BME280;19550;42.872;25.494;2023-10-31T03:53:43;96439.16;;;7.51;100.00
33185;BME280;19550;42.872;25.494;2023-10-31T03:56:10;96438.34;;;7.50;100.00
33185;BME280;19550;42.872;25.494;2023-10-31T03:58:37;96418.44;;;7.53;100.00
33185;BME280;19550;42.872;25.494;2023-10-31T04:01:04;96428.06;;;7.56;100.00
33185;BME280;19550;42.872;25.494;2023-10-31T04:03:31;96427.44;;;7.59;100.00
33185;BME280;19550;42.872;25.494;2023-10-31T04:05:59;96444.22;;;7.63;100.00
33185;BME280;19550;42.872;25.494;2023-10-31T04:08:26;96428.59;;;7.72;100.00
33185;BME280;19550;42.872;25.494;2023-10-31T04:10:53;96437.09;;;7.75;100.00
33185;BME280;19550;42.872;25.494;2023-10-31T04:13:20;96429.41;;;7.72;100.00
33185;BME280;19550;42.872;25.494;2023-10-31T04:15:46;96437.06;;;7.62;100.00
33185;BME280;19550;42.872;25.494;2023-10-31T04:18:13;96426.31;;;7.60;100.00
33185;BME280;19550;42.872;25.494;2023-10-31T04:20:40;96432.25;;;7.35;100.00
33185;BME280;19550;42.872;25.494;2023-10-31T04:23:09;96438.56;;;7.35;100.00
33185;BME280;19550;42.872;25.494;2023-10-31T04:25:37;96413.41;;;7.23;100.00
33185;BME280;19550;42.872;25.494;2023-10-31T04:28:04;96435.72;;;7.40;100.00
33185;BME280;19550;42.872;25.494;2023-10-31T04:30:31;96446.03;;;7.35;100.00
33185;BME280;19550;42.872;25.494;2023-10-31T04:32:57;96439.09;;;7.37;100.00
33185;BME280;19550;42.872;25.494;2023-10-31T04:35:24;96444.31;;;7.39;100.00
33185;BME280;19550;42.872;25.494;2023-10-31T04:37:51;96429.50;;;7.35;100.00
33185;BME280;19550;42.872;25.494;2023-10-31T04:40:19;96439.94;;;7.38;100.00
33185;BME280;19550;42.872;25.494;2023-10-31T04:42:46;96439.69;;;7.34;100.00
33185;BME280;19550;42.872;25.494;2023-10-31T04:45:13;96437.97;;;7.38;100.00
33185;BME280;19550;42.872;25.494;2023-10-31T04:47:41;96442.50;;;7.48;100.00
33185;BME280;19550;42.872;25.494;2023-10-31T04:50:09;96436.41;;;7.51;100.00
33185;BME280;19550;42.872;25.494;2023-10-31T04:52:36;96435.78;;;7.54;100.00
33185;BME280;19550;42.872;25.494;2023-10-31T04:55:03;96440.66;;;7.43;100.00
33185;BME280;19550;42.872;25.494;2023-10-31T04:57:31;96429.19;;;7.36;100.00
33185;BME280;19550;42.872;25.494;2023-10-31T04:59:57;96429.69;;;7.38;100.00
33185;BME280;19550;42.872;25.494;2023-10-31T05:02:24;96427.25;;;7.18;100.00
33185;BME280;19550;42.872;25.494;2023-10-31T05:04:51;96436.28;;;7.24;100.00
33185;BME280;19550;42.872;25.494;2023-10-31T05:07:18;96429.56;;;7.30;100.00
33185;BME280;19550;42.872;25.494;2023-10-31T05:09:45;96433.28;;;7.39;100.00
33185;BME280;19550;42.872;25.494;2023-10-31T05:12:12;96431.41;;;7.34;100.00
33185;BME280;19550;42.872;25.494;2023-10-31T05:14:41;96430.06;;;7.32;100.00
33185;BME280;19550;42.872;25.494;2023-10-31T05:17:09;96413.38;;;7.42;100.00
33185;BME280;19550;42.872;25.494;2023-10-31T05:19:36;96436.84;;;7.39;100.00
33185;BME280;19550;42.872;25.494;2023-10-31T05:22:06;96423.03;;;7.58;100.00
33185;BME280;19550;42.872;25.494;2023-10-31T05:24:32;96416.06;;;7.47;100.00
33185;BME280;19550;42.872;25.494;2023-10-31T05:26:59;96409.25;;;7.58;100.00
33185;BME280;19550;42.872;25.494;2023-10-31T05:29:26;96413.19;;;7.71;100.00
33185;BME280;19550;42.872;25.494;2023-10-31T05:31:54;96415.69;;;7.99;100.00
33185;BME280;19550;42.872;25.494;2023-10-31T05:34:21;96407.41;;;7.99;100.00
33185;BME280;19550;42.872;25.494;2023-10-31T05:36:49;96416.25;;;8.15;100.00
33185;BME280;19550;42.872;25.494;2023-10-31T05:39:16;96413.78;;;8.27;100.00
33185;BME280;19550;42.872;25.494;2023-10-31T05:41:43;96411.06;;;8.41;100.00
33185;BME280;19550;42.872;25.494;2023-10-31T05:44:10;96412.41;;;8.57;100.00
33185;BME280;19550;42.872;25.494;2023-10-31T05:46:37;96401.44;;;8.80;100.00
33185;BME280;19550;42.872;25.494;2023-10-31T05:49:08;96405.50;;;8.96;100.00
33185;BME280;19550;42.872;25.494;2023-10-31T05:51:34;96400.16;;;8.99;100.00
33185;BME280;19550;42.872;25.494;2023-10-31T05:54:02;96396.84;;;9.11;100.00
33185;BME280;19550;42.872;25.494;2023-10-31T05:56:28;96393.69;;;9.40;100.00
33185;BME280;19550;42.872;25.494;2023-10-31T05:58:55;96397.59;;;9.61;100.00
33185;BME280;19550;42.872;25.494;2023-10-31T06:01:22;96402.44;;;9.78;100.00
33185;BME280;19550;42.872;25.494;2023-10-31T06:03:49;96405.78;;;9.88;100.00
33185;BME280;19550;42.872;25.494;2023-10-31T06:06:17;96409.09;;;9.99;100.00
33185;BME280;19550;42.872;25.494;2023-10-31T06:08:43;96407.00;;;10.05;100.00
33185;BME280;19550;42.872;25.494;2023-10-31T06:11:10;96398.31;;;10.20;100.00
33185;BME280;19550;42.872;25.494;2023-10-31T06:13:38;96406.06;;;10.40;100.00
33185;BME280;19550;42.872;25.494;2023-10-31T06:16:06;96398.16;;;10.56;100.00
33185;BME280;19550;42.872;25.494;2023-10-31T06:18:33;96400.28;;;10.59;100.00
33185;BME280;19550;42.872;25.494;2023-10-31T06:21:00;96402.16;;;10.81;100.00
33185;BME280;19550;42.872;25.494;2023-10-31T06:23:28;96394.03;;;10.93;100.00
33185;BME280;19550;42.872;25.494;2023-10-31T06:25:54;96390.63;;;11.13;100.00
33185;BME280;19550;42.872;25.494;2023-10-31T06:28:21;96393.75;;;11.20;100.00
33185;BME280;19550;42.872;25.494;2023-10-31T06:30:48;96394.44;;;11.43;100.00
33185;BME280;19550;42.872;25.494;2023-10-31T06:33:15;96392.13;;;11.62;100.00
33185;BME280;19550;42.872;25.494;2023-10-31T06:35:41;96383.47;;;11.81;100.00
33185;BME280;19550;42.872;25.494;2023-10-31T06:38:08;96390.63;;;11.90;100.00
33185;BME280;19550;42.872;25.494;2023-10-31T06:40:36;96384.88;;;12.13;100.00
33185;BME280;19550;42.872;25.494;2023-10-31T06:43:03;96384.69;;;12.18;100.00
33185;BME280;19550;42.872;25.494;2023-10-31T06:45:30;96393.13;;;12.39;100.00
33185;BME280;19550;42.872;25.494;2023-10-31T06:47:56;96382.94;;;12.51;100.00
33185;BME280;19550;42.872;25.494;2023-10-31T06:50:24;96383.72;;;12.60;100.00
33185;BME280;19550;42.872;25.494;2023-10-31T06:52:50;96379.09;;;12.73;100.00
33185;BME280;19550;42.872;25.494;2023-10-31T06:55:17;96387.31;;;12.90;100.00
33185;BME280;19550;42.872;25.494;2023-10-31T06:57:45;96383.44;;;13.12;100.00
33185;BME280;19550;42.872;25.494;2023-10-31T07:00:13;96390.00;;;13.37;100.00
33185;BME280;19550;42.872;25.494;2023-10-31T07:02:39;96389.00;;;13.62;100.00
33185;BME280;19550;42.872;25.494;2023-10-31T07:05:07;96386.22;;;13.62;100.00
33185;BME280;19550;42.872;25.494;2023-10-31T07:07:33;96386.53;;;13.81;100.00
33185;BME280;19550;42.872;25.494;2023-10-31T07:10:00;96386.91;;;13.92;100.00
33185;BME280;19550;42.872;25.494;2023-10-31T07:12:27;96375.84;;;14.16;100.00
33185;BME280;19550;42.872;25.494;2023-10-31T07:14:55;96390.97;;;14.48;100.00
33185;BME280;19550;42.872;25.494;2023-10-31T07:17:23;96389.09;;;14.64;100.00
33185;BME280;19550;42.872;25.494;2023-10-31T07:19:50;96384.25;;;14.86;100.00
33185;BME280;19550;42.872;25.494;2023-10-31T07:22:17;96380.28;;;15.11;100.00
33185;BME280;19550;42.872;25.494;2023-10-31T07:24:44;96383.88;;;15.24;100.00
33185;BME280;19550;42.872;25.494;2023-10-31T07:27:10;96386.84;;;15.43;100.00
33185;BME280;19550;42.872;25.494;2023-10-31T07:29:39;96387.31;;;15.57;100.00
33185;BME280;19550;42.872;25.494;2023-10-31T07:32:08;96381.81;;;15.73;100.00
33185;BME280;19550;42.872;25.494;2023-10-31T07:34:35;96377.28;;;15.96;100.00
33185;BME280;19550;42.872;25.494;2023-10-31T07:37:02;96379.03;;;16.01;100.00
33185;BME280;19550;42.872;25.494;2023-10-31T07:39:29;96371.13;;;16.18;100.00
33185;BME280;19550;42.872;25.494;2023-10-31T07:41:55;96373.44;;;16.44;100.00
33185;BME280;19550;42.872;25.494;2023-10-31T07:44:22;96364.19;;;16.72;98.98
33185;BME280;19550;42.872;25.494;2023-10-31T07:46:49;96357.03;;;16.90;99.95
33185;BME280;19550;42.872;25.494;2023-10-31T07:49:17;96359.66;;;17.14;99.44
33185;BME280;19550;42.872;25.494;2023-10-31T07:51:44;96366.38;;;17.29;97.98
33185;BME280;19550;42.872;25.494;2023-10-31T07:54:13;96350.22;;;17.57;96.07
33185;BME280;19550;42.872;25.494;2023-10-31T07:56:40;96357.13;;;17.79;97.27
33185;BME280;19550;42.872;25.494;2023-10-31T07:59:06;96355.19;;;18.02;95.25
33185;BME280;19550;42.872;25.494;2023-10-31T08:01:34;96347.19;;;18.23;94.39
33185;BME280;19550;42.872;25.494;2023-10-31T08:04:00;96347.09;;;18.58;92.28
33185;BME280;19550;42.872;25.494;2023-10-31T08:06:29;96317.16;;;18.66;92.69
33185;BME280;19550;42.872;25.494;2023-10-31T08:08:55;96334.41;;;18.91;92.03
33185;BME280;19550;42.872;25.494;2023-10-31T08:11:22;96333.72;;;19.24;89.49
33185;BME280;19550;42.872;25.494;2023-10-31T08:13:49;96335.94;;;19.64;85.80
33185;BME280;19550;42.872;25.494;2023-10-31T08:16:17;96323.69;;;19.79;88.13
33185;BME280;19550;42.872;25.494;2023-10-31T08:18:45;96326.22;;;19.88;81.53
33185;BME280;19550;42.872;25.494;2023-10-31T08:21:12;96327.34;;;20.16;84.06
33185;BME280;19550;42.872;25.494;2023-10-31T08:23:40;96315.63;;;20.44;80.65
33185;BME280;19550;42.872;25.494;2023-10-31T08:26:09;96323.16;;;20.74;74.25
33185;BME280;19550;42.872;25.494;2023-10-31T08:28:36;96318.38;;;20.81;75.80
33185;BME280;19550;42.872;25.494;2023-10-31T08:31:03;96324.19;;;20.99;73.90
33185;BME280;19550;42.872;25.494;2023-10-31T08:33:30;96312.38;;;21.30;74.07
33185;BME280;19550;42.872;25.494;2023-10-31T08:35:58;96318.16;;;21.55;70.29
33185;BME280;19550;42.872;25.494;2023-10-31T08:38:26;96303.81;;;21.85;69.14
33185;BME280;19550;42.872;25.494;2023-10-31T08:40:55;96301.50;;;22.08;63.23
33185;BME280;19550;42.872;25.494;2023-10-31T08:43:22;96292.31;;;22.36;53.70
33185;BME280;19550;42.872;25.494;2023-10-31T08:45:49;96284.69;;;22.62;59.68
33185;BME280;19550;42.872;25.494;2023-10-31T08:48:15;96282.31;;;22.88;52.78
33185;BME280;19550;42.872;25.494;2023-10-31T08:50:42;96278.28;;;23.04;49.27
33185;BME280;19550;42.872;25.494;2023-10-31T08:53:09;96275.03;;;23.33;44.41
33185;BME280;19550;42.872;25.494;2023-10-31T08:55:38;96264.47;;;23.59;41.46
33185;BME280;19550;42.872;25.494;2023-10-31T08:58:06;96258.31;;;23.82;40.93
33185;BME280;19550;42.872;25.494;2023-10-31T09:00:33;96246.91;;;24.06;37.99
33185;BME280;19550;42.872;25.494;2023-10-31T09:03:00;96239.97;;;24.14;34.80
33185;BME280;19550;42.872;25.494;2023-10-31T09:05:27;96234.28;;;24.22;32.70
33185;BME280;19550;42.872;25.494;2023-10-31T09:07:53;96233.78;;;24.34;32.72
33185;BME280;19550;42.872;25.494;2023-10-31T09:10:20;96229.75;;;24.35;32.72
33185;BME280;19550;42.872;25.494;2023-10-31T09:12:47;96217.50;;;24.52;33.15
33185;BME280;19550;42.872;25.494;2023-10-31T09:15:15;96214.19;;;24.61;31.78
33185;BME280;19550;42.872;25.494;2023-10-31T09:17:42;96218.56;;;24.72;31.13
33185;BME280;19550;42.872;25.494;2023-10-31T09:20:09;96205.50;;;24.82;30.77
33185;BME280;19550;42.872;25.494;2023-10-31T09:22:36;96202.97;;;24.98;31.27
33185;BME280;19550;42.872;25.494;2023-10-31T09:25:04;96197.63;;;25.04;31.44
33185;BME280;19550;42.872;25.494;2023-10-31T09:27:31;96196.88;;;25.00;30.44
33185;BME280;19550;42.872;25.494;2023-10-31T09:29:57;96186.97;;;25.15;31.36
33185;BME280;19550;42.872;25.494;2023-10-31T09:32:25;96184.13;;;25.15;29.93
33185;BME280;19550;42.872;25.494;2023-10-31T09:34:52;96189.72;;;25.25;29.48
33185;BME280;19550;42.872;25.494;2023-10-31T09:37:19;96191.31;;;25.26;29.03
33185;BME280;19550;42.872;25.494;2023-10-31T09:39:48;96175.09;;;25.27;29.51
33185;BME280;19550;42.872;25.494;2023-10-31T09:42:15;96182.31;;;25.35;29.58
33185;BME280;19550;42.872;25.494;2023-10-31T09:44:42;96178.09;;;25.50;28.90
33185;BME280;19550;42.872;25.494;2023-10-31T09:47:09;96171.59;;;25.50;28.81
33185;BME280;19550;42.872;25.494;2023-10-31T09:49:37;96165.38;;;25.62;28.90
33185;BME280;19550;42.872;25.494;2023-10-31T09:52:04;96164.88;;;25.70;27.78
33185;BME280;19550;42.872;25.494;2023-10-31T09:54:33;96158.53;;;25.59;27.92
33185;BME280;19550;42.872;25.494;2023-10-31T09:57:00;96147.47;;;25.68;28.04
33185;BME280;19550;42.872;25.494;2023-10-31T09:59:27;96151.06;;;25.73;27.29
33185;BME280;19550;42.872;25.494;2023-10-31T10:01:54;96143.50;;;25.93;27.45
33185;BME280;19550;42.872;25.494;2023-10-31T10:04:21;96148.47;;;26.12;27.71
33185;BME280;19550;42.872;25.494;2023-10-31T10:06:58;96147.94;;;26.21;26.92
33185;BME280;19550;42.872;25.494;2023-10-31T10:09:26;96145.44;;;26.26;26.53
33185;BME280;19550;42.872;25.494;2023-10-31T10:11:54;96133.97;;;26.33;26.14
33185;BME280;19550;42.872;25.494;2023-10-31T10:14:23;96139.06;;;26.45;25.56
33185;BME280;19550;42.872;25.494;2023-10-31T10:16:50;96129.53;;;26.32;24.86
33185;BME280;19550;42.872;25.494;2023-10-31T10:19:18;96126.19;;;26.37;24.46
33185;BME280;19550;42.872;25.494;2023-10-31T10:21:49;96124.88;;;26.42;24.65
33185;BME280;19550;42.872;25.494;2023-10-31T10:24:16;96120.81;;;26.43;24.89
33185;BME280;19550;42.872;25.494;2023-10-31T10:26:44;96119.91;;;26.49;25.18
33185;BME280;19550;42.872;25.494;2023-10-31T10:29:10;96127.47;;;26.33;25.38
33185;BME280;19550;42.872;25.494;2023-10-31T10:31:37;96104.88;;;26.22;24.89
33185;BME280;19550;42.872;25.494;2023-10-31T10:34:04;96114.88;;;26.34;25.19
33185;BME280;19550;42.872;25.494;2023-10-31T10:36:33;96106.09;;;26.25;25.09
33185;BME280;19550;42.872;25.494;2023-10-31T10:39:00;96105.59;;;26.30;25.45
33185;BME280;19550;42.872;25.494;2023-10-31T10:41:34;96093.06;;;26.50;25.46
33185;BME280;19550;42.872;25.494;2023-10-31T10:44:04;96091.81;;;26.75;25.23
33185;BME280;19550;42.872;25.494;2023-10-31T10:46:33;96097.19;;;26.93;25.08
33185;BME280;19550;42.872;25.494;2023-10-31T10:49:04;96091.59;;;26.89;25.93
33185;BME280;19550;42.872;25.494;2023-10-31T10:51:40;96084.03;;;27.02;26.11
33185;BME280;19550;42.872;25.494;2023-10-31T10:54:15;96076.00;;;26.97;25.81
33185;BME280;19550;42.872;25.494;2023-10-31T10:56:52;96079.84;;;27.07;26.00
33185;BME280;19550;42.872;25.494;2023-10-31T10:59:24;96073.81;;;27.05;25.65
33185;BME280;19550;42.872;25.494;2023-10-31T11:01:54;96074.69;;;27.21;25.61
33185;BME280;19550;42.872;25.494;2023-10-31T11:04:22;96069.09;;;27.18;26.16
33185;BME280;19550;42.872;25.494;2023-10-31T11:06:49;96069.75;;;27.45;26.29
33185;BME280;19550;42.872;25.494;2023-10-31T11:09:16;96075.94;;;27.20;26.54
33185;BME280;19550;42.872;25.494;2023-10-31T11:11:45;96064.06;;;27.25;26.66
33185;BME280;19550;42.872;25.494;2023-10-31T11:14:15;96063.16;;;27.28;26.78
33185;BME280;19550;42.872;25.494;2023-10-31T11:16:47;96054.75;;;27.21;26.77
33185;BME280;19550;42.872;25.494;2023-10-31T11:19:15;96053.31;;;27.13;26.56
33185;BME280;19550;42.872;25.494;2023-10-31T11:21:53;96044.34;;;27.15;26.95
33185;BME280;19550;42.872;25.494;2023-10-31T11:24:20;96042.72;;;27.34;26.53
33185;BME280;19550;42.872;25.494;2023-10-31T11:26:52;96044.84;;;27.10;26.64
33185;BME280;19550;42.872;25.494;2023-10-31T11:29:19;96035.59;;;27.25;26.55
33185;BME280;19550;42.872;25.494;2023-10-31T11:31:47;96037.97;;;27.27;26.53
33185;BME280;19550;42.872;25.494;2023-10-31T11:34:16;96027.25;;;27.35;25.19
33185;BME280;19550;42.872;25.494;2023-10-31T11:36:44;96027.34;;;27.31;26.07
33185;BME280;19550;42.872;25.494;2023-10-31T11:39:12;96036.59;;;27.55;26.47
33185;BME280;19550;42.872;25.494;2023-10-31T11:41:40;96037.78;;;27.74;26.36
33185;BME280;19550;42.872;25.494;2023-10-31T11:44:09;96027.31;;;27.87;26.05
33185;BME280;19550;42.872;25.494;2023-10-31T11:46:35;96029.50;;;27.63;25.92
33185;BME280;19550;42.872;25.494;2023-10-31T11:49:02;96016.66;;;27.55;26.21
33185;BME280;19550;42.872;25.494;2023-10-31T11:51:30;96021.97;;;27.53;26.42
33185;BME280;19550;42.872;25.494;2023-10-31T11:53:59;96026.53;;;27.11;26.67
33185;BME280;19550;42.872;25.494;2023-10-31T11:56:25;96017.41;;;27.00;26.39
33185;BME280;19550;42.872;25.494;2023-10-31T11:58:57;96006.34;;;26.82;27.99
33185;BME280;19550;42.872;25.494;2023-10-31T12:01:25;96009.81;;;26.50;30.13
33185;BME280;19550;42.872;25.494;2023-10-31T12:03:52;96006.56;;;26.28;29.39
33185;BME280;19550;42.872;25.494;2023-10-31T12:06:18;96002.09;;;26.04;31.23
33185;BME280;19550;42.872;25.494;2023-10-31T12:08:47;95992.44;;;25.98;28.25
33185;BME280;19550;42.872;25.494;2023-10-31T12:11:15;95993.91;;;25.83;29.28
33185;BME280;19550;42.872;25.494;2023-10-31T12:13:53;95993.56;;;25.50;31.67
33185;BME280;19550;42.872;25.494;2023-10-31T12:16:28;95986.03;;;25.10;31.33
33185;BME280;19550;42.872;25.494;2023-10-31T12:18:55;95990.00;;;25.16;30.40
33185;BME280;19550;42.872;25.494;2023-10-31T12:21:39;95990.81;;;24.82;32.43
33185;BME280;19550;42.872;25.494;2023-10-31T12:24:08;95983.88;;;24.53;32.45
33185;BME280;19550;42.872;25.494;2023-10-31T12:26:36;95985.00;;;24.22;33.42
33185;BME280;19550;42.872;25.494;2023-10-31T12:29:07;95984.13;;;24.28;32.90
33185;BME280;19550;42.872;25.494;2023-10-31T12:31:39;95982.16;;;24.25;31.46
33185;BME280;19550;42.872;25.494;2023-10-31T12:34:06;95985.09;;;24.07;34.19
33185;BME280;19550;42.872;25.494;2023-10-31T12:36:34;95978.28;;;24.01;34.09
33185;BME280;19550;42.872;25.494;2023-10-31T12:39:02;95987.91;;;24.11;32.01
33185;BME280;19550;42.872;25.494;2023-10-31T12:41:29;95984.78;;;23.98;35.28
33185;BME280;19550;42.872;25.494;2023-10-31T12:43:56;95968.31;;;23.86;34.07
33185;BME280;19550;42.872;25.494;2023-10-31T12:46:27;95979.47;;;23.59;36.64
33185;BME280;19550;42.872;25.494;2023-10-31T12:48:56;95971.84;;;23.53;33.47